createdAt,value
2022-09-02T00:01:40.931Z,9.90
2022-09-02T00:04:11.250Z,13.15
2022-09-02T00:06:39.882Z,13.32
2022-09-02T00:09:11.505Z,8.50
2022-09-02T00:11:41.441Z,8.75
2022-09-02T00:14:12.640Z,8.70
2022-09-02T00:16:51.715Z,11.48
2022-09-02T00:19:21.586Z,10.50
2022-09-02T00:21:49.666Z,10.30
2022-09-02T00:24:19.573Z,10.40
2022-09-02T00:26:48.325Z,9.00
2022-09-02T00:29:16.913Z,9.68
2022-09-02T00:31:46.257Z,9.52
2022-09-02T00:34:14.491Z,13.98
2022-09-02T00:36:42.718Z,13.60
2022-09-02T00:39:10.946Z,9.55
2022-09-02T00:41:42.298Z,10.27
2022-09-02T00:44:13.005Z,7.32
2022-09-02T00:46:41.600Z,9.82
2022-09-02T00:49:13.723Z,10.68
2022-09-02T00:51:45.946Z,8.93
2022-09-02T00:54:16.603Z,13.85
2022-09-02T00:56:49.782Z,12.20
2022-09-02T00:59:28.973Z,9.48
2022-09-02T01:01:57.375Z,9.05
2022-09-02T01:04:26.275Z,10.55
2022-09-02T01:06:54.584Z,11.10
2022-09-02T01:09:23.386Z,12.55
2022-09-02T01:11:55.116Z,12.15
2022-09-02T01:14:24.248Z,12.85
2022-09-02T01:17:00.008Z,12.25
2022-09-02T01:19:32.992Z,15.13
2022-09-02T01:22:02.798Z,14.43
2022-09-02T01:24:33.067Z,14.23
2022-09-02T01:27:01.604Z,12.00
2022-09-02T01:29:30.459Z,11.65
2022-09-02T01:31:58.901Z,12.43
2022-09-02T01:34:27.162Z,10.70
2022-09-02T01:36:55.319Z,10.45
2022-09-02T01:39:24.720Z,11.25
2022-09-02T01:41:53.794Z,12.10
2022-09-02T01:44:21.850Z,11.88
2022-09-02T01:46:49.916Z,12.80
2022-09-02T01:49:17.986Z,11.20
2022-09-02T01:51:45.988Z,11.30
2022-09-02T01:54:14.163Z,10.23
2022-09-02T01:56:45.462Z,10.30
2022-09-02T01:59:17.887Z,12.85
2022-09-02T02:01:47.012Z,11.95
2022-09-02T02:04:16.328Z,11.52
2022-09-02T02:06:45.503Z,11.93
2022-09-02T02:09:13.882Z,15.40
2022-09-02T02:11:41.972Z,12.07
2022-09-02T02:14:11.493Z,13.40
2022-09-02T02:16:39.530Z,11.43
2022-09-02T02:19:07.712Z,12.48
2022-09-02T02:21:35.820Z,12.07
2022-09-02T02:24:04.371Z,10.63
2022-09-02T02:26:32.934Z,11.00
2022-09-02T02:29:00.940Z,12.18
2022-09-02T02:31:30.430Z,11.82
2022-09-02T02:34:00.038Z,12.40
2022-09-02T02:36:28.126Z,13.15
2022-09-02T02:38:56.189Z,12.57
2022-09-02T02:41:24.300Z,16.73
2022-09-02T02:43:52.320Z,10.80
2022-09-02T02:46:20.476Z,11.50
2022-09-02T02:48:50.137Z,12.60
2022-09-02T02:51:18.316Z,12.27
2022-09-02T02:53:46.341Z,10.60
2022-09-02T02:56:14.444Z,9.70
2022-09-02T02:58:42.438Z,13.38
2022-09-02T03:01:10.631Z,10.27
2022-09-02T03:03:38.654Z,14.48
2022-09-02T03:06:08.761Z,11.15
2022-09-02T03:08:37.641Z,10.27
2022-09-02T03:11:07.130Z,10.30
2022-09-02T03:13:37.297Z,10.18
2022-09-02T03:16:06.572Z,11.52
2022-09-02T03:18:34.689Z,11.50
2022-09-02T03:21:03.378Z,10.77
2022-09-02T03:23:32.772Z,11.02
2022-09-02T03:26:00.863Z,10.63
2022-09-02T03:28:29.023Z,9.82
2022-09-02T03:30:57.139Z,10.18
2022-09-02T03:33:25.257Z,10.65
2022-09-02T03:35:53.237Z,13.40
2022-09-02T03:38:21.588Z,9.95
2022-09-02T03:40:51.058Z,10.68
2022-09-02T03:43:19.201Z,9.75
2022-09-02T03:45:47.251Z,11.38
2022-09-02T03:48:15.365Z,9.63
2022-09-02T03:50:47.421Z,10.27
2022-09-02T03:53:22.984Z,11.77
2022-09-02T03:55:52.434Z,11.32
2022-09-02T03:58:21.023Z,10.68
2022-09-02T04:00:52.784Z,13.45
2022-09-02T04:03:21.842Z,10.73
2022-09-02T04:05:51.425Z,10.02
2022-09-02T04:08:19.611Z,10.10
2022-09-02T04:10:47.621Z,8.82
2022-09-02T04:13:17.435Z,10.60
2022-09-02T04:15:49.214Z,10.05
2022-09-02T04:18:18.995Z,11.20
2022-09-02T04:20:47.224Z,8.98
2022-09-02T04:23:16.238Z,10.93
2022-09-02T04:25:45.181Z,11.15
2022-09-02T04:28:13.923Z,8.38
2022-09-02T04:30:44.277Z,9.60
2022-09-02T04:33:12.498Z,8.20
2022-09-02T04:35:41.638Z,11.05
2022-09-02T04:38:10.728Z,10.82
2022-09-02T04:40:42.212Z,7.13
2022-09-02T04:43:10.853Z,7.22
2022-09-02T04:45:42.372Z,10.63
2022-09-02T04:48:12.022Z,7.03
2022-09-02T04:50:44.072Z,7.72
2022-09-02T04:53:13.572Z,6.53
2022-09-02T04:55:43.264Z,8.27
2022-09-02T04:58:11.981Z,10.20
2022-09-02T05:00:40.637Z,8.52
2022-09-02T05:03:08.668Z,7.93
2022-09-02T05:05:39.289Z,10.18
2022-09-02T05:08:07.706Z,8.10
2022-09-02T05:10:35.777Z,7.95
2022-09-02T05:13:04.259Z,7.75
2022-09-02T05:15:32.494Z,9.57
2022-09-02T05:18:00.631Z,9.80
2022-09-02T05:20:32.360Z,7.80
2022-09-02T05:23:02.502Z,8.30
2022-09-02T05:25:30.513Z,10.07
2022-09-02T05:27:58.541Z,9.10
2022-09-02T05:30:27.699Z,9.38
2022-09-02T05:32:55.721Z,7.88
2022-09-02T05:35:24.203Z,7.72
2022-09-02T05:37:53.826Z,9.50
2022-09-02T05:40:25.871Z,7.15
2022-09-02T05:42:56.929Z,8.55
2022-09-02T05:45:25.121Z,7.13
2022-09-02T05:47:54.184Z,8.48
2022-09-02T05:50:22.463Z,8.10
2022-09-02T05:52:53.166Z,8.02
2022-09-02T05:55:22.019Z,8.02
2022-09-02T05:57:51.790Z,6.57
2022-09-02T06:00:21.457Z,8.52
2022-09-02T06:02:49.514Z,7.13
2022-09-02T06:05:18.974Z,7.88
2022-09-02T06:07:47.204Z,8.00
2022-09-02T06:10:15.192Z,9.15
2022-09-02T06:12:43.642Z,8.30
2022-09-02T06:15:15.068Z,10.98
2022-09-02T06:17:43.109Z,8.15
2022-09-02T06:20:11.996Z,9.95
2022-09-02T06:22:40.009Z,7.30
2022-09-02T06:25:08.698Z,8.25
2022-09-02T06:27:38.724Z,7.78
2022-09-02T06:30:07.674Z,7.45
2022-09-02T06:32:37.089Z,7.45
2022-09-02T06:35:08.234Z,7.03
2022-09-02T06:37:36.434Z,8.57
2022-09-02T06:40:06.021Z,13.15
2022-09-02T06:42:34.297Z,8.10
2022-09-02T06:45:02.530Z,9.93
2022-09-02T06:47:31.762Z,7.78
2022-09-02T06:50:01.929Z,10.70
2022-09-02T06:52:30.054Z,8.90
2022-09-02T06:54:58.117Z,7.20
2022-09-02T06:57:31.347Z,10.07
2022-09-02T07:00:03.737Z,9.27
2022-09-02T07:02:32.081Z,10.68
2022-09-02T07:05:15.554Z,7.82
2022-09-02T07:07:48.481Z,8.50
2022-09-02T07:10:17.887Z,7.57
2022-09-02T07:12:46.000Z,9.70
2022-09-02T07:15:14.120Z,6.55
2022-09-02T07:17:42.290Z,7.28
2022-09-02T07:20:12.863Z,7.32
2022-09-02T07:22:41.503Z,9.70
2022-09-02T07:25:11.657Z,9.68
2022-09-02T07:27:39.666Z,9.38
2022-09-02T07:30:08.792Z,8.95
2022-09-02T07:32:36.866Z,8.88
2022-09-02T07:35:06.705Z,7.15
2022-09-02T07:37:37.113Z,6.78
2022-09-02T07:40:06.919Z,10.25
2022-09-02T07:42:35.022Z,6.85
2022-09-02T07:45:03.114Z,6.57
2022-09-02T07:47:31.250Z,6.65
2022-09-02T07:50:19.043Z,8.20
2022-09-02T07:52:50.701Z,6.43
2022-09-02T07:55:18.972Z,8.25
2022-09-02T07:57:48.092Z,8.73
2022-09-02T08:00:18.359Z,7.88
2022-09-02T08:02:46.917Z,6.82
2022-09-02T08:05:15.479Z,10.70
2022-09-02T08:07:43.736Z,8.73
2022-09-02T08:10:14.852Z,7.15
2022-09-02T08:12:43.465Z,7.80
2022-09-02T08:15:13.757Z,7.15
2022-09-02T08:17:43.321Z,5.22
2022-09-02T08:20:13.775Z,6.40
2022-09-02T08:22:42.246Z,8.85
2022-09-02T08:25:13.147Z,6.63
2022-09-02T08:27:42.233Z,6.72
2022-09-02T08:30:11.890Z,8.32
2022-09-02T08:32:41.405Z,9.93
2022-09-02T08:35:11.967Z,6.97
2022-09-02T08:37:40.771Z,11.10
2022-09-02T08:40:15.079Z,7.13
2022-09-02T08:42:51.145Z,6.95
2022-09-02T08:45:23.916Z,8.18
2022-09-02T08:48:08.288Z,8.52
2022-09-02T08:50:39.899Z,6.88
2022-09-02T08:53:16.050Z,7.60
2022-09-02T08:55:50.345Z,7.05
2022-09-02T08:58:23.240Z,10.10
2022-09-02T09:00:58.614Z,8.32
2022-09-02T09:03:30.310Z,9.20
2022-09-02T09:06:08.538Z,7.30
2022-09-02T09:08:45.205Z,8.48
2022-09-02T09:11:21.042Z,8.32
2022-09-02T09:14:03.959Z,8.95
2022-09-02T09:16:41.161Z,7.97
2022-09-02T09:19:14.058Z,8.35
2022-09-02T09:21:42.963Z,7.78
2022-09-02T09:24:22.961Z,8.00
2022-09-02T09:26:50.969Z,7.28
2022-09-02T09:29:20.681Z,7.68
2022-09-02T09:31:54.745Z,6.88
2022-09-02T09:34:23.581Z,8.55
2022-09-02T09:36:54.789Z,5.82
2022-09-02T09:39:26.638Z,9.40
2022-09-02T09:41:56.275Z,6.47
2022-09-02T09:44:40.672Z,9.77
2022-09-02T09:47:14.702Z,9.00
2022-09-02T09:49:45.999Z,9.18
2022-09-02T09:52:23.991Z,9.25
2022-09-02T09:55:10.091Z,9.40
2022-09-02T09:57:41.839Z,8.77
2022-09-02T10:00:22.820Z,8.93
2022-09-02T10:02:53.960Z,7.57
2022-09-02T10:05:32.820Z,6.80
2022-09-02T10:08:03.049Z,11.32
2022-09-02T10:10:33.730Z,9.02
2022-09-02T10:16:02.216Z,7.85
2022-09-02T10:18:36.890Z,7.40
2022-09-02T10:21:17.651Z,8.80
2022-09-02T10:23:56.044Z,7.82
2022-09-02T10:26:33.754Z,8.82
2022-09-02T10:29:27.286Z,11.43
2022-09-02T10:32:11.055Z,9.75
2022-09-02T10:34:47.886Z,6.65
2022-09-02T10:37:20.749Z,8.68
2022-09-02T10:40:05.733Z,8.93
2022-09-02T10:42:43.435Z,9.13
2022-09-02T10:45:18.033Z,8.70
2022-09-02T10:48:00.299Z,10.88
2022-09-02T10:50:39.282Z,7.68
2022-09-02T10:53:24.145Z,9.15
2022-09-02T10:55:58.774Z,9.25
2022-09-02T10:58:39.118Z,7.53
2022-09-02T11:01:12.591Z,8.68
2022-09-02T11:03:48.173Z,7.93
2022-09-02T11:06:31.809Z,11.98
2022-09-02T11:09:13.376Z,7.50
2022-09-02T11:14:18.993Z,8.38
2022-09-02T11:16:53.998Z,8.35
2022-09-02T11:19:29.773Z,10.55
2022-09-02T11:22:05.952Z,7.45
2022-09-02T11:24:39.129Z,8.65
2022-09-02T11:27:26.299Z,10.82
2022-09-02T11:30:10.182Z,7.55
2022-09-02T11:32:44.974Z,8.52
2022-09-02T11:35:19.953Z,7.30
2022-09-02T11:37:53.473Z,5.90
2022-09-02T11:40:36.799Z,7.47
2022-09-02T11:43:29.619Z,8.70
2022-09-02T11:46:13.713Z,7.63
2022-09-02T11:49:09.151Z,10.00
2022-09-02T11:52:10.213Z,9.82
2022-09-02T11:54:43.112Z,9.07
2022-09-02T11:57:15.955Z,7.00
2022-09-02T12:00:06.853Z,7.43
2022-09-02T12:02:40.615Z,8.00
2022-09-02T12:05:51.718Z,7.03
2022-09-02T12:09:12.100Z,10.02
2022-09-02T12:11:49.759Z,6.57
2022-09-02T12:15:00.590Z,6.65
2022-09-02T12:17:38.516Z,5.63
2022-09-02T12:20:09.442Z,5.78
2022-09-02T12:22:39.932Z,5.63
2022-09-02T12:25:38.328Z,5.97
2022-09-02T12:28:27.447Z,6.20
2022-09-02T12:31:22.733Z,7.40
2022-09-02T12:33:51.867Z,7.00
2022-09-02T12:36:49.589Z,8.63
2022-09-02T12:39:58.657Z,7.00
2022-09-02T12:42:33.467Z,9.25
2022-09-02T12:45:12.570Z,9.05
2022-09-02T12:47:54.622Z,8.40
2022-09-02T12:50:30.027Z,7.03
2022-09-02T12:53:31.518Z,6.93
2022-09-02T12:56:04.505Z,6.20
2022-09-02T12:58:37.026Z,6.50
2022-09-02T13:01:26.004Z,6.10
2022-09-02T13:04:23.677Z,9.43
2022-09-02T13:07:27.367Z,8.20
2022-09-02T13:10:34.289Z,7.00
2022-09-02T13:13:36.185Z,8.70
2022-09-02T13:16:18.375Z,11.02
2022-09-02T13:19:22.035Z,12.52
2022-09-02T13:22:19.783Z,14.65
2022-09-02T13:25:13.515Z,15.98
2022-09-02T13:28:04.012Z,16.83
2022-09-02T13:30:57.520Z,12.05
2022-09-02T13:33:28.141Z,11.85
2022-09-02T13:36:00.470Z,12.20
2022-09-02T13:38:30.477Z,13.07
2022-09-02T13:40:59.684Z,12.05
2022-09-02T13:43:28.791Z,12.98
2022-09-02T13:46:02.254Z,15.15
2022-09-02T13:51:10.609Z,10.45
2022-09-02T13:53:45.788Z,11.32
2022-09-02T13:56:30.891Z,11.38
2022-09-02T13:58:59.417Z,12.57
2022-09-02T14:01:30.404Z,10.70
2022-09-02T14:04:01.789Z,10.93
2022-09-02T14:19:35.040Z,11.32
2022-09-02T14:22:03.785Z,12.73
2022-09-02T14:24:40.888Z,9.18
2022-09-02T14:27:18.488Z,10.10
2022-09-02T14:29:48.723Z,11.95
2022-09-02T14:32:23.715Z,9.45
2022-09-02T14:35:12.985Z,10.55
2022-09-02T14:37:57.807Z,9.93
2022-09-02T14:40:44.724Z,11.98
2022-09-02T14:43:15.358Z,9.63
2022-09-02T14:45:48.768Z,10.10
2022-09-02T14:48:23.146Z,8.75
2022-09-02T14:51:02.702Z,8.35
2022-09-02T14:53:31.125Z,12.32
2022-09-02T14:55:59.401Z,9.73
2022-09-02T14:58:29.005Z,12.15
2022-09-02T15:00:59.293Z,10.70
2022-09-02T15:03:28.258Z,13.07
2022-09-02T15:05:57.802Z,11.98
2022-09-02T15:08:25.986Z,9.98
2022-09-02T15:10:55.685Z,9.93
2022-09-02T15:13:28.772Z,13.73
2022-09-02T15:15:58.375Z,13.05
2022-09-02T15:18:26.940Z,11.88
2022-09-02T15:20:55.359Z,10.05
2022-09-02T15:23:27.317Z,12.77
2022-09-02T15:25:57.264Z,11.90
2022-09-02T15:28:25.342Z,12.13
2022-09-02T15:30:59.105Z,10.75
2022-09-02T15:33:27.922Z,12.63
2022-09-02T15:35:56.767Z,11.00
2022-09-02T15:38:26.242Z,9.70
2022-09-02T15:40:54.522Z,11.35
2022-09-02T15:43:23.391Z,12.07
2022-09-02T15:45:51.704Z,10.43
2022-09-02T15:48:20.018Z,11.93
2022-09-02T15:50:48.134Z,9.75
2022-09-02T15:53:16.467Z,10.23
2022-09-02T15:55:45.986Z,9.05
2022-09-02T15:58:14.082Z,8.85
2022-09-02T16:00:43.943Z,6.93
2022-09-02T16:03:12.191Z,7.80
2022-09-02T16:05:43.291Z,6.68
2022-09-02T16:08:11.655Z,6.13
2022-09-02T16:10:40.454Z,6.25
2022-09-02T16:13:09.967Z,5.65
2022-09-02T16:15:38.048Z,6.15
2022-09-02T16:18:06.338Z,5.60
2022-09-02T16:20:34.717Z,6.68
2022-09-02T16:23:02.832Z,5.57
2022-09-02T16:25:30.931Z,7.57
2022-09-02T16:27:59.235Z,8.20
2022-09-02T16:30:30.196Z,7.90
2022-09-02T16:32:59.864Z,7.95
2022-09-02T16:35:27.975Z,8.43
2022-09-02T16:37:57.550Z,7.00
2022-09-02T16:40:25.666Z,7.47
2022-09-02T16:42:53.743Z,6.30
2022-09-02T16:45:21.847Z,6.18
2022-09-02T16:47:51.343Z,6.45
2022-09-02T16:50:20.075Z,6.15
2022-09-02T16:52:48.590Z,6.78
2022-09-02T16:55:18.838Z,6.03
2022-09-02T16:57:47.023Z,5.38
2022-09-02T17:00:16.878Z,5.95
2022-09-02T17:02:45.240Z,5.90
2022-09-02T17:05:17.523Z,5.78
2022-09-02T17:07:46.886Z,6.75
2022-09-02T17:10:14.982Z,6.30
2022-09-02T17:12:43.406Z,7.13
2022-09-02T17:15:11.909Z,6.45
2022-09-02T17:17:40.192Z,4.80
2022-09-02T17:20:09.036Z,4.10
2022-09-02T17:22:38.453Z,5.47
2022-09-02T17:25:07.914Z,5.03
2022-09-02T17:27:37.670Z,5.25
2022-09-02T17:30:06.714Z,3.83
2022-09-02T17:32:34.837Z,5.25
2022-09-02T17:35:03.290Z,4.80
2022-09-02T17:37:32.195Z,4.93
2022-09-02T17:40:01.849Z,5.32
2022-09-02T17:42:28.992Z,6.93
2022-09-02T17:44:58.017Z,8.05
2022-09-02T17:47:26.535Z,6.20
2022-09-02T17:49:54.736Z,6.07
2022-09-02T17:52:24.539Z,7.72
2022-09-02T17:54:54.814Z,7.63
2022-09-02T17:57:42.478Z,5.85
2022-09-02T18:00:13.500Z,7.47
2022-09-02T18:03:22.605Z,6.80
2022-09-02T18:05:59.617Z,8.68
2022-09-02T18:08:38.841Z,7.07
2022-09-02T18:11:07.946Z,7.50
2022-09-02T18:13:45.102Z,5.80
2022-09-02T18:16:29.628Z,10.27
2022-09-02T18:19:13.223Z,7.50
2022-09-02T18:21:59.106Z,8.60
2022-09-02T18:24:43.048Z,9.38
2022-09-02T18:29:59.222Z,8.48
2022-09-02T18:32:45.096Z,7.68
2022-09-02T18:35:25.091Z,8.40
2022-09-02T18:38:02.270Z,10.57
2022-09-02T18:40:38.141Z,12.27
2022-09-02T18:43:19.707Z,12.02
2022-09-02T18:45:51.586Z,10.98
2022-09-02T18:48:23.762Z,9.48
2022-09-02T18:50:55.688Z,11.00
2022-09-02T18:53:29.720Z,10.77
2022-09-02T18:56:03.702Z,9.52
2022-09-02T18:58:40.973Z,10.75
2022-09-02T19:01:17.754Z,9.30
2022-09-02T19:03:46.048Z,9.20
2022-09-02T19:06:22.782Z,8.93
2022-09-02T19:08:57.079Z,12.48
2022-09-02T19:11:25.931Z,9.82
2022-09-02T19:13:56.140Z,11.18
2022-09-02T19:16:28.556Z,12.32
2022-09-02T19:18:56.777Z,12.80
2022-09-02T19:21:33.304Z,11.85
2022-09-02T19:24:02.654Z,12.75
2022-09-02T19:26:30.970Z,9.45
2022-09-02T19:28:59.686Z,10.93
2022-09-02T19:31:31.753Z,9.63
2022-09-02T19:34:03.444Z,10.65
2022-09-02T19:36:34.063Z,9.18
2022-09-02T19:39:02.314Z,9.38
2022-09-02T19:41:30.410Z,10.18
2022-09-02T19:44:00.326Z,10.02
2022-09-02T19:47:24.784Z,8.02
2022-09-02T19:49:18.171Z,9.55
2022-09-02T19:51:47.278Z,11.90
2022-09-02T19:54:18.235Z,9.90
2022-09-02T19:56:46.415Z,13.48
2022-09-02T19:59:14.548Z,12.68
2022-09-02T20:01:44.100Z,13.38
2022-09-02T20:04:12.475Z,11.40
2022-09-02T20:06:40.891Z,10.52
2022-09-02T20:09:09.017Z,10.43
2022-09-02T20:11:38.658Z,10.57
2022-09-02T20:14:09.360Z,11.00
2022-09-02T20:16:37.811Z,11.00
2022-09-02T20:36:18.357Z,10.80
2022-09-02T20:39:12.040Z,8.93
2022-09-02T20:41:47.866Z,8.23
2022-09-02T20:44:42.683Z,8.18
2022-09-02T20:47:29.019Z,7.88
2022-09-02T20:50:23.199Z,7.55
2022-09-02T20:53:05.530Z,6.63
2022-09-02T20:55:40.580Z,5.63
2022-09-02T20:58:22.870Z,6.18
2022-09-02T21:01:03.341Z,7.63
2022-09-02T21:03:39.965Z,8.63
2022-09-02T21:06:10.936Z,6.07
2022-09-02T21:08:49.907Z,7.63
2022-09-02T21:11:22.050Z,7.38
2022-09-02T21:13:54.416Z,9.00
2022-09-02T21:16:28.168Z,8.77
2022-09-02T21:21:37.700Z,9.88
2022-09-02T21:24:15.609Z,7.55
2022-09-02T21:26:49.313Z,9.32
2022-09-02T21:29:23.987Z,10.15
2022-09-02T21:31:58.534Z,8.35
2022-09-02T21:34:32.223Z,7.78
2022-09-02T21:37:01.280Z,7.32
2022-09-02T21:39:36.023Z,7.93
2022-09-02T21:42:16.850Z,12.13
2022-09-02T21:44:57.920Z,11.50
2022-09-02T21:47:32.557Z,11.13
2022-09-02T21:50:10.039Z,11.48
2022-09-02T21:53:05.069Z,9.15
2022-09-02T21:58:52.214Z,9.32
2022-09-02T22:01:31.513Z,8.82
2022-09-02T22:04:07.085Z,7.85
2022-09-02T22:06:41.046Z,7.22
2022-09-02T22:09:12.240Z,7.03
2022-09-02T22:11:45.094Z,7.85
2022-09-02T22:14:18.922Z,7.80
2022-09-02T22:19:30.473Z,6.45
2022-09-02T22:22:07.417Z,6.97
2022-09-02T22:24:37.557Z,7.20
2022-09-02T22:27:12.710Z,8.52
2022-09-02T22:29:47.189Z,12.10
2022-09-02T22:32:17.794Z,8.90
2022-09-02T22:34:52.047Z,6.68
2022-09-02T22:37:26.065Z,8.68
2022-09-02T22:39:56.715Z,8.23
2022-09-02T22:42:34.170Z,7.78
2022-09-02T22:45:33.979Z,8.77
2022-09-02T22:48:27.457Z,8.82
2022-09-02T22:51:29.403Z,8.53
2022-09-02T22:53:57.381Z,7.65
2022-09-02T22:56:36.132Z,6.45
2022-09-02T23:20:28.586Z,7.18
2022-09-02T23:23:16.158Z,6.90
2022-09-02T23:26:05.194Z,6.93
2022-09-02T23:28:46.212Z,6.90
2022-09-02T23:31:22.114Z,7.97
2022-09-02T23:34:03.281Z,7.55
2022-09-02T23:36:41.461Z,7.35
2022-09-02T23:39:24.171Z,7.38
2022-09-02T23:41:53.521Z,5.75
2022-09-02T23:44:23.036Z,6.95
2022-09-02T23:47:03.675Z,6.60
2022-09-02T23:49:39.041Z,7.32
2022-09-02T23:52:21.333Z,8.10
2022-09-02T23:55:05.806Z,9.32
2022-09-02T23:57:49.173Z,6.93
